Time;durP1;ratioP1;P1;durP2;ratioP2;P2;SDS_P1;SDS_P2;PMS_P1;PMS_P2;Temp;Humidity;BMP_temperature;BMP_pressure;BME280_temperature;BME280_humidity;BME280_pressure;Samples;Min_cycle;Max_cycle;Signal;HPM_P1;HPM_P2
2022/10/29 00:00:18;;;;;;;10.05;5.28;;;;;;;;;;5100112;28;20349;-85
2022/10/29 00:02:45;;;;;;;13.32;4.60;;;;;;;;;;5095140;28;20234;-86
2022/10/29 00:05:13;;;;;;;8.82;4.55;;;;;;;;;;5100905;28;20230;-85
2022/10/29 00:07:40;;;;;;;9.38;4.20;;;;;;;;;;5106325;28;20225;-85
2022/10/29 00:10:08;;;;;;;11.38;4.93;;;;;;;;;;5105984;28;20230;-85
2022/10/29 00:12:35;;;;;;;10.05;4.88;;;;;;;;;;5101370;28;20258;-85
2022/10/29 00:15:04;;;;;;;9.20;4.60;;;;;;;;;;5099388;28;20293;-85
2022/10/29 00:17:32;;;;;;;11.32;4.90;;;;;;;;;;5104428;28;20753;-84
2022/10/29 00:19:59;;;;;;;12.13;5.18;;;;;;;;;;5107967;28;20305;-85
2022/10/29 00:22:26;;;;;;;9.60;5.18;;;;;;;;;;5114291;28;20221;-85
2022/10/29 00:24:53;;;;;;;13.75;4.57;;;;;;;;;;5100194;28;20232;-86
2022/10/29 00:27:20;;;;;;;11.02;5.10;;;;;;;;;;5098656;28;20277;-85
2022/10/29 00:29:47;;;;;;;10.45;5.00;;;;;;;;;;5094817;28;20749;-86
2022/10/29 00:32:16;;;;;;;11.07;5.18;;;;;;;;;;5096113;28;20226;-85
2022/10/29 00:34:43;;;;;;;12.05;5.00;;;;;;;;;;5099729;28;20221;-86
2022/10/29 00:37:10;;;;;;;11.45;4.88;;;;;;;;;;5103984;28;20579;-86
2022/10/29 00:39:38;;;;;;;11.43;4.95;;;;;;;;;;5100172;28;20221;-85
2022/10/29 00:42:05;;;;;;;13.45;4.22;;;;;;;;;;5096304;28;20254;-85
2022/10/29 00:44:34;;;;;;;10.05;4.65;;;;;;;;;;5111331;28;20233;-85
2022/10/29 00:47:11;;;;;;;9.52;4.85;;;;;;;;;;5095975;28;20238;-85
2022/10/29 00:49:40;;;;;;;10.45;4.78;;;;;;;;;;5095167;28;20672;-85
2022/10/29 00:52:07;;;;;;;9.23;5.18;;;;;;;;;;5097831;28;20194;-85
2022/10/29 00:54:37;;;;;;;11.13;4.95;;;;;;;;;;5099879;28;20266;-85
2022/10/29 00:57:08;;;;;;;11.73;4.65;;;;;;;;;;5104563;28;20285;-85
2022/10/29 00:59:35;;;;;;;9.82;4.40;;;;;;;;;;5105961;28;20680;-85
2022/10/29 01:02:02;;;;;;;8.60;4.57;;;;;;;;;;5101577;28;20261;-85
2022/10/29 01:04:30;;;;;;;10.95;4.82;;;;;;;;;;5106043;28;20226;-85
2022/10/29 01:06:59;;;;;;;13.38;4.88;;;;;;;;;;5099017;28;20206;-85
2022/10/29 01:09:26;;;;;;;9.57;4.72;;;;;;;;;;5098028;28;20641;-85
2022/10/29 01:11:59;;;;;;;12.95;5.10;;;;;;;;;;5095265;28;20241;-85
2022/10/29 01:14:31;;;;;;;13.90;5.38;;;;;;;;;;5111707;28;20599;-85
2022/10/29 01:17:04;;;;;;;9.85;4.75;;;;;;;;;;5109206;28;20412;-86
2022/10/29 01:19:45;;;;;;;10.23;5.15;;;;;;;;;;5108058;28;20646;-86
2022/10/29 01:22:17;;;;;;;11.52;5.05;;;;;;;;;;5104645;28;20246;-85
2022/10/29 01:24:54;;;;;;;9.70;4.30;;;;;;;;;;5102928;28;20272;-85
2022/10/29 01:27:44;;;;;;;10.82;5.20;;;;;;;;;;5103902;28;20631;-85
2022/10/29 01:30:13;;;;;;;10.20;4.93;;;;;;;;;;5096728;28;20728;-85
2022/10/29 01:32:47;;;;;;;13.35;5.10;;;;;;;;;;5108109;28;20232;-85
2022/10/29 01:35:17;;;;;;;13.63;5.68;;;;;;;;;;5103523;28;20285;-85
2022/10/29 01:37:50;;;;;;;8.85;4.68;;;;;;;;;;5098846;28;20293;-86
2022/10/29 01:40:22;;;;;;;9.85;4.70;;;;;;;;;;5106381;28;20508;-85
2022/10/29 01:42:51;;;;;;;15.07;5.30;;;;;;;;;;5102139;28;20705;-85
2022/10/29 01:45:21;;;;;;;8.75;4.72;;;;;;;;;;5100448;28;20834;-85
2022/10/29 01:47:51;;;;;;;14.57;4.97;;;;;;;;;;5095012;28;20279;-85
2022/10/29 01:50:20;;;;;;;9.85;4.97;;;;;;;;;;5101988;28;20222;-85
2022/10/29 01:52:48;;;;;;;11.15;4.82;;;;;;;;;;5098713;28;20229;-85
2022/10/29 01:55:17;;;;;;;10.07;5.25;;;;;;;;;;5110070;28;20282;-85
2022/10/29 01:57:44;;;;;;;10.32;5.20;;;;;;;;;;5103075;28;20204;-86
2022/10/29 02:00:13;;;;;;;10.50;5.28;;;;;;;;;;5111051;28;20222;-85
2022/10/29 02:02:47;;;;;;;16.95;5.38;;;;;;;;;;5097459;28;20242;-86
2022/10/29 02:05:19;;;;;;;12.25;5.63;;;;;;;;;;5094883;28;20285;-85
2022/10/29 02:07:50;;;;;;;13.27;4.95;;;;;;;;;;5105950;28;20657;-85
2022/10/29 02:10:24;;;;;;;14.23;5.55;;;;;;;;;;5113801;28;20202;-86
2022/10/29 02:12:52;;;;;;;16.65;5.93;;;;;;;;;;5093843;28;20317;-85
2022/10/29 02:15:21;;;;;;;10.88;5.57;;;;;;;;;;5099704;28;20286;-85
2022/10/29 02:17:48;;;;;;;12.00;5.63;;;;;;;;;;5093290;28;20226;-85
2022/10/29 02:20:16;;;;;;;11.30;5.32;;;;;;;;;;5099189;28;20226;-85
2022/10/29 02:22:44;;;;;;;11.25;5.00;;;;;;;;;;5094651;28;20260;-85
2022/10/29 02:25:12;;;;;;;17.80;6.03;;;;;;;;;;5106315;28;20229;-86
2022/10/29 02:27:40;;;;;;;17.17;5.50;;;;;;;;;;5104687;28;20724;-85
2022/10/29 02:30:08;;;;;;;13.80;5.50;;;;;;;;;;5103559;28;20242;-86
2022/10/29 02:32:35;;;;;;;15.93;5.93;;;;;;;;;;5099610;28;20194;-85
2022/10/29 02:35:03;;;;;;;13.73;5.75;;;;;;;;;;5107129;28;20229;-85
2022/10/29 02:37:30;;;;;;;19.48;5.68;;;;;;;;;;5108258;28;20281;-85
2022/10/29 02:39:58;;;;;;;12.18;5.15;;;;;;;;;;5109550;28;20225;-85
2022/10/29 02:42:26;;;;;;;14.68;6.38;;;;;;;;;;5113000;28;20719;-85
2022/10/29 02:44:53;;;;;;;11.98;5.35;;;;;;;;;;5106636;28;20311;-85
2022/10/29 02:47:20;;;;;;;15.40;5.88;;;;;;;;;;5093727;28;20663;-86
2022/10/29 02:49:47;;;;;;;15.32;5.35;;;;;;;;;;5095307;28;20226;-86
2022/10/29 02:52:14;;;;;;;14.10;5.25;;;;;;;;;;5099863;28;20214;-86
2022/10/29 02:54:41;;;;;;;11.38;6.15;;;;;;;;;;5096119;28;20745;-85
2022/10/29 02:57:10;;;;;;;14.55;5.55;;;;;;;;;;5112702;28;20559;-85
2022/10/29 02:59:37;;;;;;;11.25;5.50;;;;;;;;;;5112415;28;20281;-86
2022/10/29 03:02:04;;;;;;;11.52;4.93;;;;;;;;;;5112828;28;20319;-86
2022/10/29 03:04:32;;;;;;;12.43;5.38;;;;;;;;;;5112333;28;20201;-86
2022/10/29 03:06:59;;;;;;;8.63;5.22;;;;;;;;;;5099327;28;20755;-86
2022/10/29 03:09:26;;;;;;;14.02;6.25;;;;;;;;;;5112236;28;20240;-86
2022/10/29 03:11:53;;;;;;;12.75;5.63;;;;;;;;;;5111795;28;20236;-85
2022/10/29 03:14:22;;;;;;;14.35;5.40;;;;;;;;;;5111887;28;20308;-85
2022/10/29 03:16:49;;;;;;;11.07;5.22;;;;;;;;;;5112794;28;20229;-86
2022/10/29 03:19:16;;;;;;;13.80;5.80;;;;;;;;;;5112565;28;20189;-86
2022/10/29 03:21:43;;;;;;;15.07;6.25;;;;;;;;;;5101198;28;20805;-86
2022/10/29 03:24:11;;;;;;;13.80;5.70;;;;;;;;;;5108205;28;20232;-85
2022/10/29 03:26:39;;;;;;;12.57;5.95;;;;;;;;;;5104243;28;20302;-85
2022/10/29 03:29:06;;;;;;;13.80;5.70;;;;;;;;;;5099646;28;20296;-85
2022/10/29 03:31:35;;;;;;;12.02;5.47;;;;;;;;;;5094784;28;20243;-85
2022/10/29 03:34:02;;;;;;;13.15;5.28;;;;;;;;;;5096428;28;20226;-86
2022/10/29 03:36:29;;;;;;;10.27;5.70;;;;;;;;;;5107612;28;20724;-85
2022/10/29 03:38:56;;;;;;;14.07;6.32;;;;;;;;;;5106593;28;20228;-86
2022/10/29 03:41:23;;;;;;;15.45;6.40;;;;;;;;;;5106266;28;20596;-85
2022/10/29 03:43:51;;;;;;;15.13;6.55;;;;;;;;;;5107962;28;20236;-86
2022/10/29 03:46:18;;;;;;;10.93;5.97;;;;;;;;;;5106906;28;20208;-85
2022/10/29 03:48:49;;;;;;;12.35;6.00;;;;;;;;;;5111190;28;20263;-85
2022/10/29 03:51:16;;;;;;;11.30;5.63;;;;;;;;;;5105212;28;20222;-86
2022/10/29 03:53:43;;;;;;;14.52;5.90;;;;;;;;;;5104375;28;20277;-85
2022/10/29 03:56:11;;;;;;;17.00;6.10;;;;;;;;;;5109344;28;20281;-86
2022/10/29 03:58:38;;;;;;;15.43;6.05;;;;;;;;;;5101169;28;20222;-86
2022/10/29 04:01:06;;;;;;;10.95;5.72;;;;;;;;;;5106402;28;20237;-85
2022/10/29 04:03:34;;;;;;;15.20;6.35;;;;;;;;;;5104920;28;20273;-86
2022/10/29 04:06:03;;;;;;;14.65;7.07;;;;;;;;;;5102920;28;20202;-86
2022/10/29 04:08:30;;;;;;;12.32;6.22;;;;;;;;;;5102470;28;20281;-85
2022/10/29 04:10:57;;;;;;;13.30;5.82;;;;;;;;;;5103006;28;20618;-86
2022/10/29 04:13:25;;;;;;;14.23;6.70;;;;;;;;;;5100893;28;20313;-86
2022/10/29 04:15:54;;;;;;;16.25;6.80;;;;;;;;;;5111885;28;20228;-85
2022/10/29 04:18:22;;;;;;;14.88;6.30;;;;;;;;;;5100935;28;20201;-86
2022/10/29 04:20:49;;;;;;;13.35;6.30;;;;;;;;;;5105451;28;20233;-85
2022/10/29 04:23:17;;;;;;;13.75;5.88;;;;;;;;;;5102993;28;20245;-85
2022/10/29 04:25:54;;;;;;;13.25;6.20;;;;;;;;;;5114317;28;20610;-86
2022/10/29 04:28:21;;;;;;;15.73;6.70;;;;;;;;;;5098199;28;20207;-85
2022/10/29 04:30:49;;;;;;;11.63;6.20;;;;;;;;;;5104684;28;20285;-86
2022/10/29 04:33:16;;;;;;;15.43;6.63;;;;;;;;;;5105479;28;20209;-86
2022/10/29 04:35:44;;;;;;;11.48;6.22;;;;;;;;;;5104159;28;20290;-85
2022/10/29 04:38:11;;;;;;;15.15;6.78;;;;;;;;;;5102667;28;20285;-86
2022/10/29 04:40:40;;;;;;;13.27;6.40;;;;;;;;;;5102003;28;20226;-86
2022/10/29 04:43:07;;;;;;;14.57;6.63;;;;;;;;;;5096431;28;20254;-86
2022/10/29 04:45:34;;;;;;;12.80;6.28;;;;;;;;;;5099512;28;20661;-86
2022/10/29 04:48:01;;;;;;;16.80;6.55;;;;;;;;;;5102415;28;20284;-86
2022/10/29 04:50:29;;;;;;;12.73;6.78;;;;;;;;;;5103985;28;20281;-86
2022/10/29 04:52:58;;;;;;;17.05;6.57;;;;;;;;;;5108935;28;20217;-86
2022/10/29 04:55:25;;;;;;;15.65;7.22;;;;;;;;;;5100526;28;20290;-86
2022/10/29 04:57:54;;;;;;;14.43;6.70;;;;;;;;;;5098916;28;21667;-86
2022/10/29 05:00:22;;;;;;;17.05;6.57;;;;;;;;;;5104662;28;20237;-86
2022/10/29 05:02:49;;;;;;;15.30;6.70;;;;;;;;;;5100297;28;20309;-85
2022/10/29 05:05:17;;;;;;;10.98;6.47;;;;;;;;;;5098905;28;20225;-86
2022/10/29 05:07:44;;;;;;;17.80;7.20;;;;;;;;;;5111527;28;20229;-86
2022/10/29 05:10:11;;;;;;;14.93;6.90;;;;;;;;;;5111325;28;20713;-86
2022/10/29 05:12:39;;;;;;;15.75;6.82;;;;;;;;;;5107326;28;20637;-85
2022/10/29 05:15:08;;;;;;;14.10;6.80;;;;;;;;;;5102306;28;20760;-85
2022/10/29 05:17:37;;;;;;;13.25;6.75;;;;;;;;;;5103496;28;20277;-85
2022/10/29 05:20:05;;;;;;;13.90;7.05;;;;;;;;;;5102528;28;20205;-85
2022/10/29 05:22:32;;;;;;;12.38;6.35;;;;;;;;;;5108406;28;20256;-85
2022/10/29 05:24:59;;;;;;;14.30;7.20;;;;;;;;;;5105526;28;20888;-85
2022/10/29 05:27:27;;;;;;;13.00;7.10;;;;;;;;;;5101984;28;20301;-85
2022/10/29 05:29:54;;;;;;;16.23;7.60;;;;;;;;;;5110752;28;20295;-85
2022/10/29 05:32:22;;;;;;;12.48;6.97;;;;;;;;;;5106599;28;20226;-84
2022/10/29 05:34:49;;;;;;;16.20;6.88;;;;;;;;;;5108810;28;20226;-84
2022/10/29 05:37:17;;;;;;;17.10;7.63;;;;;;;;;;5108949;28;20225;-85
2022/10/29 05:39:44;;;;;;;12.95;7.13;;;;;;;;;;5102025;28;20237;-87
2022/10/29 05:42:11;;;;;;;15.95;7.05;;;;;;;;;;5110822;28;20309;-86
2022/10/29 05:44:38;;;;;;;19.77;7.55;;;;;;;;;;5094845;28;20234;-86
2022/10/29 05:47:06;;;;;;;15.13;7.43;;;;;;;;;;5097257;28;20658;-86
2022/10/29 05:49:35;;;;;;;14.48;7.30;;;;;;;;;;5103460;28;20232;-85
2022/10/29 05:52:02;;;;;;;14.13;8.25;;;;;;;;;;5112048;28;20709;-86
2022/10/29 05:54:29;;;;;;;13.82;7.50;;;;;;;;;;5097882;28;20199;-85
2022/10/29 05:56:58;;;;;;;12.93;7.95;;;;;;;;;;5097594;28;20225;-85
2022/10/29 05:59:26;;;;;;;13.18;7.63;;;;;;;;;;5107752;28;20190;-86
2022/10/29 06:01:54;;;;;;;13.00;8.35;;;;;;;;;;5100961;28;20285;-85
2022/10/29 06:04:21;;;;;;;17.92;7.43;;;;;;;;;;5101031;28;20273;-86
2022/10/29 06:06:49;;;;;;;14.63;7.97;;;;;;;;;;5095704;28;20286;-86
2022/10/29 06:09:17;;;;;;;14.52;7.75;;;;;;;;;;5096306;28;20285;-86
2022/10/29 06:11:44;;;;;;;16.45;8.20;;;;;;;;;;5093472;28;20278;-86
2022/10/29 06:14:11;;;;;;;19.13;7.90;;;;;;;;;;5093861;28;20265;-86
2022/10/29 06:16:38;;;;;;;18.52;7.45;;;;;;;;;;5113145;28;20221;-86
2022/10/29 06:19:05;;;;;;;15.40;7.78;;;;;;;;;;5113057;28;20229;-86
2022/10/29 06:21:33;;;;;;;16.05;8.18;;;;;;;;;;5104163;28;20289;-86
2022/10/29 06:24:01;;;;;;;15.55;8.15;;;;;;;;;;5105124;28;20217;-86
2022/10/29 06:26:29;;;;;;;15.05;7.93;;;;;;;;;;5099573;28;20222;-85
2022/10/29 06:28:56;;;;;;;18.83;8.27;;;;;;;;;;5112307;28;20301;-86
2022/10/29 06:31:23;;;;;;;17.35;8.20;;;;;;;;;;5106069;28;20223;-86
2022/10/29 06:33:50;;;;;;;14.70;7.55;;;;;;;;;;5106388;28;20209;-85
2022/10/29 06:36:18;;;;;;;14.50;8.02;;;;;;;;;;5112120;28;20240;-86
2022/10/29 06:38:45;;;;;;;14.60;7.85;;;;;;;;;;5112367;28;20233;-86
2022/10/29 06:41:13;;;;;;;13.75;7.75;;;;;;;;;;5094177;28;20302;-86
2022/10/29 06:43:41;;;;;;;15.85;7.68;;;;;;;;;;5097198;28;20305;-85
2022/10/29 06:46:08;;;;;;;14.48;8.07;;;;;;;;;;5096540;28;20749;-86
2022/10/29 06:48:35;;;;;;;16.40;8.05;;;;;;;;;;5092674;28;20293;-85
2022/10/29 06:51:02;;;;;;;14.75;8.00;;;;;;;;;;5110177;28;20233;-85
2022/10/29 06:53:29;;;;;;;12.55;8.07;;;;;;;;;;5097386;28;20273;-86
2022/10/29 06:55:57;;;;;;;17.92;8.48;;;;;;;;;;5112420;28;20280;-85
2022/10/29 06:58:25;;;;;;;20.33;8.82;;;;;;;;;;5104085;28;20285;-85
2022/10/29 07:00:54;;;;;;;17.13;8.57;;;;;;;;;;5092734;28;20710;-85
2022/10/29 07:03:22;;;;;;;16.92;9.20;;;;;;;;;;5097287;28;21067;-86
2022/10/29 07:05:55;;;;;;;17.52;9.52;;;;;;;;;;5094822;28;20725;-86
2022/10/29 07:08:22;;;;;;;15.98;8.18;;;;;;;;;;5092108;28;20285;-85
2022/10/29 07:10:51;;;;;;;12.32;8.35;;;;;;;;;;5111076;28;20200;-84
2022/10/29 07:13:18;;;;;;;18.95;8.80;;;;;;;;;;5102767;28;20308;-85
2022/10/29 07:15:47;;;;;;;14.25;8.00;;;;;;;;;;5094971;28;20226;-86
2022/10/29 07:18:15;;;;;;;16.20;8.13;;;;;;;;;;5103527;28;20274;-84
2022/10/29 07:20:43;;;;;;;17.23;7.72;;;;;;;;;;5097114;28;20285;-84
2022/10/29 07:23:11;;;;;;;12.68;7.45;;;;;;;;;;5095352;28;20300;-85
2022/10/29 07:25:39;;;;;;;17.73;7.60;;;;;;;;;;5103673;28;20611;-85
2022/10/29 07:28:08;;;;;;;11.88;7.45;;;;;;;;;;5100446;28;20200;-85
2022/10/29 07:30:36;;;;;;;18.33;7.63;;;;;;;;;;5098169;28;20301;-85
2022/10/29 07:33:05;;;;;;;13.57;7.55;;;;;;;;;;5100754;28;20218;-85
2022/10/29 07:35:33;;;;;;;14.32;7.38;;;;;;;;;;5103637;28;20198;-85
2022/10/29 07:38:01;;;;;;;13.57;7.78;;;;;;;;;;5095066;28;20204;-84
2022/10/29 07:40:28;;;;;;;19.05;8.48;;;;;;;;;;5098278;28;20222;-83
2022/10/29 07:42:55;;;;;;;15.82;7.15;;;;;;;;;;5102326;28;20222;-85
2022/10/29 07:45:24;;;;;;;19.98;7.57;;;;;;;;;;5089632;28;20773;-85
2022/10/29 07:47:59;;;;;;;13.35;6.93;;;;;;;;;;5089430;28;20281;-86
2022/10/29 07:50:28;;;;;;;14.55;7.45;;;;;;;;;;5090055;28;20221;-86
2022/10/29 07:52:55;;;;;;;15.25;7.30;;;;;;;;;;5092922;28;20285;-86
2022/10/29 07:55:22;;;;;;;11.13;6.82;;;;;;;;;;5099668;28;20222;-86
2022/10/29 07:58:00;;;;;;;14.80;7.13;;;;;;;;;;5098812;28;20230;-85
2022/10/29 08:00:27;;;;;;;13.23;7.18;;;;;;;;;;5090104;28;20226;-86
2022/10/29 08:02:54;;;;;;;12.93;7.68;;;;;;;;;;5089974;28;20313;-86
2022/10/29 08:05:22;;;;;;;15.25;7.00;;;;;;;;;;5090019;28;20267;-86
2022/10/29 08:07:55;;;;;;;16.35;7.00;;;;;;;;;;5090945;28;20210;-86
2022/10/29 08:10:22;;;;;;;12.65;6.80;;;;;;;;;;5101543;28;20874;-86
2022/10/29 08:12:50;;;;;;;13.10;6.88;;;;;;;;;;5107615;28;20302;-86
2022/10/29 08:15:18;;;;;;;14.90;6.95;;;;;;;;;;5103829;28;20202;-86
2022/10/29 08:17:47;;;;;;;14.90;7.00;;;;;;;;;;5102635;28;20206;-86
2022/10/29 08:20:15;;;;;;;12.63;6.90;;;;;;;;;;5102175;28;20683;-77
2022/10/29 08:22:42;;;;;;;12.23;6.50;;;;;;;;;;5096820;28;20725;-78
2022/10/29 08:25:12;;;;;;;15.90;6.68;;;;;;;;;;5100901;28;20206;-77
2022/10/29 08:27:39;;;;;;;14.95;6.90;;;;;;;;;;5098496;28;20237;-77
2022/10/29 08:30:07;;;;;;;15.13;6.43;;;;;;;;;;5109184;28;20289;-77
2022/10/29 08:32:36;;;;;;;17.90;6.90;;;;;;;;;;5102375;28;20201;-77
2022/10/29 08:35:07;;;;;;;15.40;7.05;;;;;;;;;;5106387;28;20251;-77
2022/10/29 08:37:34;;;;;;;13.93;7.10;;;;;;;;;;5112059;28;20194;-77
2022/10/29 08:40:02;;;;;;;19.10;7.60;;;;;;;;;;5105847;28;20263;-77
2022/10/29 08:42:41;;;;;;;16.60;6.68;;;;;;;;;;5105261;28;20225;-77
2022/10/29 08:45:18;;;;;;;16.88;7.10;;;;;;;;;;5098678;28;20284;-77
2022/10/29 08:47:51;;;;;;;14.23;6.85;;;;;;;;;;5102606;27;20193;-77
2022/10/29 08:50:21;;;;;;;18.85;7.80;;;;;;;;;;5111886;28;20198;-77
2022/10/29 08:52:49;;;;;;;15.27;8.00;;;;;;;;;;5105849;28;20233;-77
2022/10/29 08:55:18;;;;;;;15.27;7.43;;;;;;;;;;5103077;28;20227;-77
2022/10/29 08:57:51;;;;;;;14.93;7.13;;;;;;;;;;5106774;28;20252;-78
2022/10/29 09:00:19;;;;;;;17.20;8.88;;;;;;;;;;5107566;28;20740;-78
2022/10/29 09:02:49;;;;;;;16.92;9.27;;;;;;;;;;5104261;28;20210;-77
2022/10/29 09:05:17;;;;;;;16.10;10.52;;;;;;;;;;5113007;28;20209;-78
2022/10/29 09:07:51;;;;;;;18.17;9.23;;;;;;;;;;5107882;28;20617;-77
2022/10/29 09:10:24;;;;;;;14.55;7.60;;;;;;;;;;5105584;28;20226;-77
2022/10/29 09:13:01;;;;;;;17.10;7.80;;;;;;;;;;5095402;28;20291;-78
2022/10/29 09:15:34;;;;;;;17.88;7.68;;;;;;;;;;5094228;28;20206;-76
2022/10/29 09:18:12;;;;;;;15.80;8.07;;;;;;;;;;5103939;28;20289;-76
2022/10/29 09:20:46;;;;;;;17.85;8.00;;;;;;;;;;5102175;28;20197;-76
2022/10/29 09:23:20;;;;;;;15.18;7.68;;;;;;;;;;5106246;28;20257;-76
2022/10/29 09:25:50;;;;;;;12.68;7.32;;;;;;;;;;5099477;28;20285;-77
2022/10/29 09:28:23;;;;;;;18.60;8.02;;;;;;;;;;5114061;28;20281;-77
2022/10/29 09:30:54;;;;;;;14.18;7.13;;;;;;;;;;5103258;28;20287;-76
2022/10/29 09:33:22;;;;;;;15.40;7.32;;;;;;;;;;5098428;28;20269;-77
2022/10/29 09:35:53;;;;;;;18.60;6.38;;;;;;;;;;5107564;28;20285;-77
2022/10/29 09:38:27;;;;;;;16.67;6.70;;;;;;;;;;5100591;28;20281;-77
2022/10/29 09:40:57;;;;;;;14.57;6.38;;;;;;;;;;5105541;28;20726;-77
2022/10/29 09:43:34;;;;;;;12.48;7.05;;;;;;;;;;5100434;28;20245;-78
2022/10/29 09:46:04;;;;;;;15.45;7.55;;;;;;;;;;5093123;28;20234;-77
2022/10/29 09:48:34;;;;;;;12.18;6.88;;;;;;;;;;5098192;28;20194;-77
2022/10/29 09:51:08;;;;;;;16.10;6.78;;;;;;;;;;5105019;28;20780;-77
2022/10/29 09:53:35;;;;;;;16.50;7.00;;;;;;;;;;5109624;28;20229;-78
2022/10/29 09:56:03;;;;;;;12.43;6.63;;;;;;;;;;5107937;28;20240;-77
2022/10/29 09:58:36;;;;;;;15.82;6.80;;;;;;;;;;5094157;28;20607;-77
2022/10/29 10:01:04;;;;;;;10.57;6.38;;;;;;;;;;5096031;28;20248;-78
2022/10/29 10:03:37;;;;;;;15.40;6.20;;;;;;;;;;5097270;28;20301;-78
2022/10/29 10:06:05;;;;;;;10.50;5.95;;;;;;;;;;5097199;28;20198;-77
2022/10/29 10:08:33;;;;;;;11.05;5.82;;;;;;;;;;5098538;28;20248;-78
2022/10/29 10:11:01;;;;;;;15.20;6.82;;;;;;;;;;5106843;28;20203;-78
2022/10/29 10:13:29;;;;;;;12.75;6.32;;;;;;;;;;5100537;28;20318;-78
2022/10/29 10:15:59;;;;;;;12.85;6.93;;;;;;;;;;5108450;28;20282;-78
2022/10/29 10:18:27;;;;;;;12.68;7.03;;;;;;;;;;5100909;28;20195;-78
2022/10/29 10:21:02;;;;;;;12.18;6.57;;;;;;;;;;5100540;28;20270;-78
2022/10/29 10:23:30;;;;;;;11.38;6.35;;;;;;;;;;5102400;28;20308;-78
2022/10/29 10:25:58;;;;;;;16.25;7.53;;;;;;;;;;5096959;28;20195;-78
2022/10/29 10:28:28;;;;;;;13.20;7.22;;;;;;;;;;5093252;28;20292;-78
2022/10/29 10:31:11;;;;;;;16.25;8.70;;;;;;;;;;5108770;28;20259;-78
2022/10/29 10:33:45;;;;;;;13.70;6.97;;;;;;;;;;5096742;28;20650;-79
2022/10/29 10:36:12;;;;;;;16.27;6.90;;;;;;;;;;4749999;28;10000539;-78
2022/10/29 10:38:40;;;;;;;20.30;7.45;;;;;;;;;;5095312;28;20346;-78
2022/10/29 10:41:08;;;;;;;12.85;6.50;;;;;;;;;;5103623;28;20280;-78
2022/10/29 10:43:36;;;;;;;11.15;6.22;;;;;;;;;;5107745;28;20250;-78
2022/10/29 10:46:05;;;;;;;12.77;5.95;;;;;;;;;;5094584;28;20808;-79
2022/10/29 10:48:34;;;;;;;15.35;6.53;;;;;;;;;;5110558;28;20205;-78
2022/10/29 10:51:12;;;;;;;14.25;6.65;;;;;;;;;;5106118;28;20592;-78
2022/10/29 10:53:40;;;;;;;14.48;6.63;;;;;;;;;;5096984;28;20232;-78
2022/10/29 10:56:15;;;;;;;10.80;5.57;;;;;;;;;;5094919;28;20210;-79
2022/10/29 10:58:45;;;;;;;13.80;6.53;;;;;;;;;;5105965;28;21735;-78
2022/10/29 11:01:14;;;;;;;15.13;6.97;;;;;;;;;;5094153;28;20289;-78
2022/10/29 11:03:44;;;;;;;13.10;6.60;;;;;;;;;;5099760;28;20297;-79
2022/10/29 11:06:15;;;;;;;16.40;6.95;;;;;;;;;;5102573;28;20229;-78
2022/10/29 11:08:45;;;;;;;17.27;6.90;;;;;;;;;;5102061;28;20206;-78
2022/10/29 11:11:16;;;;;;;11.13;6.88;;;;;;;;;;5108230;28;20194;-78
2022/10/29 11:13:44;;;;;;;11.73;6.75;;;;;;;;;;5096628;28;20987;-78
2022/10/29 11:16:14;;;;;;;16.65;7.22;;;;;;;;;;5104830;28;20316;-79
2022/10/29 11:18:44;;;;;;;13.93;7.28;;;;;;;;;;5095561;28;20716;-79
2022/10/29 11:21:14;;;;;;;11.70;6.68;;;;;;;;;;5105845;28;20253;-78
2022/10/29 11:23:47;;;;;;;12.30;6.35;;;;;;;;;;5099768;28;20201;-79
2022/10/29 11:26:16;;;;;;;11.25;6.85;;;;;;;;;;5090629;28;20230;-78
2022/10/29 11:28:46;;;;;;;17.33;7.53;;;;;;;;;;5090832;28;20218;-79
2022/10/29 11:31:17;;;;;;;16.55;7.05;;;;;;;;;;5090841;28;20233;-77
2022/10/29 11:33:48;;;;;;;16.45;7.40;;;;;;;;;;5089874;28;20233;-78
2022/10/29 11:36:19;;;;;;;13.32;7.32;;;;;;;;;;5100814;28;20200;-77
2022/10/29 11:38:49;;;;;;;15.23;7.10;;;;;;;;;;5092710;28;20682;-78
2022/10/29 11:41:21;;;;;;;12.38;6.40;;;;;;;;;;5100356;28;20236;-78
2022/10/29 11:43:49;;;;;;;12.95;6.95;;;;;;;;;;5097019;28;20221;-78
2022/10/29 11:46:23;;;;;;;11.68;6.45;;;;;;;;;;5101209;28;20281;-79
2022/10/29 11:48:57;;;;;;;15.85;6.10;;;;;;;;;;5099686;28;20233;-78
2022/10/29 11:51:29;;;;;;;14.23;6.40;;;;;;;;;;5100869;28;20217;-78
2022/10/29 11:53:59;;;;;;;19.40;8.13;;;;;;;;;;5101527;28;20904;-79
2022/10/29 11:56:33;;;;;;;14.45;5.60;;;;;;;;;;5104325;28;20669;-78
2022/10/29 11:59:03;;;;;;;12.68;6.15;;;;;;;;;;5100239;28;20281;-78
2022/10/29 12:01:36;;;;;;;15.35;5.65;;;;;;;;;;5100614;28;20229;-77
2022/10/29 12:04:26;;;;;;;12.52;5.82;;;;;;;;;;5104633;28;20309;-78
2022/10/29 12:06:58;;;;;;;10.15;5.28;;;;;;;;;;5111455;28;20247;-78
2022/10/29 12:09:33;;;;;;;16.30;5.70;;;;;;;;;;5099942;28;20238;-78
2022/10/29 12:12:02;;;;;;;11.65;5.30;;;;;;;;;;5110087;28;20236;-79
2022/10/29 12:14:32;;;;;;;10.23;5.25;;;;;;;;;;5106777;28;20657;-79
2022/10/29 12:17:02;;;;;;;11.82;5.30;;;;;;;;;;5111003;28;20669;-79
2022/10/29 12:19:36;;;;;;;13.35;5.85;;;;;;;;;;5104007;28;20193;-79
2022/10/29 12:22:07;;;;;;;11.50;5.30;;;;;;;;;;5110915;28;20195;-79
2022/10/29 12:24:47;;;;;;;12.85;5.25;;;;;;;;;;5096679;28;20301;-79
2022/10/29 12:27:19;;;;;;;9.10;4.78;;;;;;;;;;5105579;28;20198;-79
2022/10/29 12:29:50;;;;;;;14.75;5.70;;;;;;;;;;5104064;28;20309;-79
2022/10/29 12:32:20;;;;;;;12.32;5.47;;;;;;;;;;5103528;28;20279;-79
2022/10/29 12:34:52;;;;;;;16.85;6.10;;;;;;;;;;5107297;28;20230;-79
2022/10/29 12:37:23;;;;;;;14.15;5.72;;;;;;;;;;5101455;28;20285;-79
2022/10/29 12:39:54;;;;;;;12.98;5.65;;;;;;;;;;5105901;28;20284;-79
2022/10/29 12:42:23;;;;;;;12.10;5.38;;;;;;;;;;5106658;28;20202;-79
2022/10/29 12:44:58;;;;;;;13.05;5.57;;;;;;;;;;5115573;28;20227;-79
2022/10/29 12:47:26;;;;;;;16.75;6.03;;;;;;;;;;5107246;28;20631;-79
2022/10/29 12:50:02;;;;;;;13.50;5.75;;;;;;;;;;5100142;28;20293;-79
2022/10/29 12:52:31;;;;;;;15.48;5.30;;;;;;;;;;5101832;28;20255;-79
2022/10/29 12:54:59;;;;;;;9.30;4.80;;;;;;;;;;5108627;28;20280;-79
2022/10/29 12:57:31;;;;;;;12.65;6.10;;;;;;;;;;5103467;28;20199;-79
2022/10/29 13:00:18;;;;;;;12.68;5.93;;;;;;;;;;5097703;28;20692;-79
2022/10/29 13:02:46;;;;;;;17.17;5.93;;;;;;;;;;5109054;28;20294;-79
2022/10/29 13:05:15;;;;;;;14.95;5.82;;;;;;;;;;5104681;28;20781;-78
2022/10/29 13:08:01;;;;;;;16.17;6.40;;;;;;;;;;5092856;28;20201;-79
2022/10/29 13:10:49;;;;;;;11.68;6.00;;;;;;;;;;5093239;28;20592;-79
2022/10/29 13:13:21;;;;;;;12.70;5.65;;;;;;;;;;5092423;28;20269;-79
2022/10/29 13:15:50;;;;;;;13.07;5.90;;;;;;;;;;5099238;28;20267;-79
2022/10/29 13:18:20;;;;;;;16.08;5.65;;;;;;;;;;5103371;28;20222;-79
2022/10/29 13:20:50;;;;;;;17.00;6.13;;;;;;;;;;5094592;28;20237;-79
2022/10/29 13:23:34;;;;;;;17.13;6.28;;;;;;;;;;5094881;28;20234;-79
2022/10/29 13:26:02;;;;;;;14.25;5.72;;;;;;;;;;5094260;28;20229;-79
2022/10/29 13:28:49;;;;;;;18.40;6.03;;;;;;;;;;5089385;28;20202;-79
2022/10/29 13:31:35;;;;;;;17.08;5.75;;;;;;;;;;5093075;28;20199;-79
2022/10/29 13:34:02;;;;;;;16.13;6.00;;;;;;;;;;5100809;28;20252;-79
2022/10/29 13:36:40;;;;;;;13.30;5.50;;;;;;;;;;5100813;28;20292;-79
2022/10/29 13:39:18;;;;;;;14.63;5.65;;;;;;;;;;5101426;28;20691;-79
2022/10/29 13:41:50;;;;;;;13.18;5.47;;;;;;;;;;5105385;28;20248;-79
2022/10/29 13:44:17;;;;;;;13.93;5.90;;;;;;;;;;5099488;28;20194;-79
2022/10/29 13:46:47;;;;;;;14.60;6.43;;;;;;;;;;5104345;28;20218;-79
2022/10/29 13:49:17;;;;;;;19.38;6.25;;;;;;;;;;5098295;28;20289;-79
2022/10/29 13:51:50;;;;;;;17.25;6.70;;;;;;;;;;5091787;28;20241;-79
2022/10/29 13:54:22;;;;;;;17.60;6.13;;;;;;;;;;5092766;28;20244;-79
2022/10/29 13:56:51;;;;;;;12.98;6.05;;;;;;;;;;5100731;28;20634;-80
2022/10/29 13:59:21;;;;;;;19.25;6.70;;;;;;;;;;5103256;28;20243;-79
2022/10/29 14:02:01;;;;;;;17.85;6.45;;;;;;;;;;5109032;28;20284;-79
2022/10/29 14:04:31;;;;;;;18.08;6.05;;;;;;;;;;5107793;28;20330;-79
2022/10/29 14:07:01;;;;;;;14.88;6.18;;;;;;;;;;5104373;28;20209;-79
2022/10/29 14:09:34;;;;;;;17.02;6.13;;;;;;;;;;5095527;28;20568;-78
2022/10/29 14:12:02;;;;;;;17.15;6.45;;;;;;;;;;5097016;28;20589;-79
2022/10/29 14:14:32;;;;;;;18.50;5.82;;;;;;;;;;5107421;28;20646;-79
2022/10/29 14:17:12;;;;;;;20.58;5.72;;;;;;;;;;5103202;28;20202;-79
2022/10/29 14:19:44;;;;;;;19.50;6.40;;;;;;;;;;5100998;28;20194;-79
2022/10/29 14:22:40;;;;;;;18.38;5.72;;;;;;;;;;5099845;28;20194;-79
2022/10/29 14:25:22;;;;;;;18.08;5.78;;;;;;;;;;5045632;28;20911;-78
2022/10/29 14:28:05;;;;;;;15.18;5.68;;;;;;;;;;5047617;28;20300;-79
2022/10/29 14:30:33;;;;;;;15.52;6.32;;;;;;;;;;5049310;28;20223;-79
2022/10/29 14:33:00;;;;;;;18.35;6.18;;;;;;;;;;5048423;28;20246;-79
2022/10/29 14:35:28;;;;;;;15.20;5.72;;;;;;;;;;5049975;28;20274;-79
2022/10/29 14:37:55;;;;;;;18.85;5.75;;;;;;;;;;5049886;28;20342;-79
2022/10/29 14:40:23;;;;;;;18.50;5.88;;;;;;;;;;5049230;28;20192;-79
2022/10/29 14:42:53;;;;;;;16.92;5.68;;;;;;;;;;5050216;28;20204;-79
2022/10/29 14:45:22;;;;;;;17.58;5.10;;;;;;;;;;5047644;28;20227;-79